Kearney, Missouri
Current Conditions -  °F | °C
As of 10:35 AM on Friday 24 Oct 2014 (Local Time) from KGPH Reporting Station
Haze Haze  
Wind Chill: 57°   Ceiling: 500
Heat Index: 57°   Visibility: 5mi
Dew Point: 57°   Wind: 6mph
Humidity: 100%   Direction: 190°S
Pressure: 30.06"   Gusts: NA
Location:  39.37°N, 94.36°W
Report Text: KGPH 241535Z AUTO 19005KT 5SM BR OVC005 14/14 A3006 RMK AO2
Loading
Personal Weather Stations






























Interactive Weather Map
Tropical Storm Tracking
New forecast layout! Learn more

10-Day Weather Forecast

Advertisements
Track Severe Weather on mobile